sensor_id;sensor_type;location;lat;lon;timestamp;P1;durP1;ratioP1;P2;durP2;ratioP2
32295;SDS011;18781;51.550;5.418;2023-12-28T00:02:06;5.18;;;3.00;;
32295;SDS011;18781;51.550;5.418;2023-12-28T00:04:32;5.00;;;3.13;;
32295;SDS011;18781;51.550;5.418;2023-12-28T00:06:59;7.35;;;3.03;;
32295;SDS011;18781;51.550;5.418;2023-12-28T00:09:27;7.25;;;3.08;;
32295;SDS011;18781;51.550;5.418;2023-12-28T00:11:52;6.18;;;2.92;;
32295;SDS011;18781;51.550;5.418;2023-12-28T00:14:18;3.80;;;2.55;;
32295;SDS011;18781;51.550;5.418;2023-12-28T00:16:44;4.43;;;2.60;;
32295;SDS011;18781;51.550;5.418;2023-12-28T00:19:09;7.03;;;2.92;;
32295;SDS011;18781;51.550;5.418;2023-12-28T00:21:35;6.13;;;3.25;;
32295;SDS011;18781;51.550;5.418;2023-12-28T00:24:00;8.35;;;3.65;;
32295;SDS011;18781;51.550;5.418;2023-12-28T00:26:26;5.20;;;2.90;;
32295;SDS011;18781;51.550;5.418;2023-12-28T00:28:52;6.20;;;2.90;;
32295;SDS011;18781;51.550;5.418;2023-12-28T00:31:17;5.55;;;2.70;;
32295;SDS011;18781;51.550;5.418;2023-12-28T00:33:43;6.97;;;3.00;;
32295;SDS011;18781;51.550;5.418;2023-12-28T00:36:09;8.45;;;3.15;;
32295;SDS011;18781;51.550;5.418;2023-12-28T00:38:34;6.80;;;2.85;;
32295;SDS011;18781;51.550;5.418;2023-12-28T00:41:00;6.07;;;3.20;;
32295;SDS011;18781;51.550;5.418;2023-12-28T00:43:26;4.72;;;3.00;;
32295;SDS011;18781;51.550;5.418;2023-12-28T00:45:51;6.68;;;3.30;;
32295;SDS011;18781;51.550;5.418;2023-12-28T00:48:17;6.00;;;3.38;;
32295;SDS011;18781;51.550;5.418;2023-12-28T00:50:43;6.80;;;2.90;;
32295;SDS011;18781;51.550;5.418;2023-12-28T00:53:08;5.10;;;3.25;;
32295;SDS011;18781;51.550;5.418;2023-12-28T00:55:34;5.57;;;2.95;;
32295;SDS011;18781;51.550;5.418;2023-12-28T00:57:59;3.90;;;2.90;;
32295;SDS011;18781;51.550;5.418;2023-12-28T01:00:27;7.85;;;3.28;;
32295;SDS011;18781;51.550;5.418;2023-12-28T01:02:54;7.20;;;3.47;;
32295;SDS011;18781;51.550;5.418;2023-12-28T01:05:19;7.63;;;2.97;;
32295;SDS011;18781;51.550;5.418;2023-12-28T01:07:46;5.03;;;3.17;;
32295;SDS011;18781;51.550;5.418;2023-12-28T01:10:12;6.00;;;3.13;;
32295;SDS011;18781;51.550;5.418;2023-12-28T01:12:37;8.55;;;3.20;;
32295;SDS011;18781;51.550;5.418;2023-12-28T01:15:03;6.97;;;3.30;;
32295;SDS011;18781;51.550;5.418;2023-12-28T01:17:29;8.02;;;3.15;;
32295;SDS011;18781;51.550;5.418;2023-12-28T01:19:55;5.57;;;3.15;;
32295;SDS011;18781;51.550;5.418;2023-12-28T01:22:20;9.00;;;3.50;;
32295;SDS011;18781;51.550;5.418;2023-12-28T01:24:46;7.30;;;3.00;;
32295;SDS011;18781;51.550;5.418;2023-12-28T01:27:14;6.70;;;3.45;;
32295;SDS011;18781;51.550;5.418;2023-12-28T01:29:40;9.23;;;3.30;;
32295;SDS011;18781;51.550;5.418;2023-12-28T01:32:05;7.90;;;3.65;;
32295;SDS011;18781;51.550;5.418;2023-12-28T01:34:31;6.28;;;3.10;;
32295;SDS011;18781;51.550;5.418;2023-12-28T01:36:57;7.72;;;3.40;;
32295;SDS011;18781;51.550;5.418;2023-12-28T01:39:22;6.68;;;3.42;;
32295;SDS011;18781;51.550;5.418;2023-12-28T01:41:48;8.65;;;3.17;;
32295;SDS011;18781;51.550;5.418;2023-12-28T01:44:14;7.10;;;3.00;;
32295;SDS011;18781;51.550;5.418;2023-12-28T01:46:39;6.90;;;3.10;;
32295;SDS011;18781;51.550;5.418;2023-12-28T01:49:06;8.10;;;2.78;;
32295;SDS011;18781;51.550;5.418;2023-12-28T01:51:32;9.48;;;2.70;;
32295;SDS011;18781;51.550;5.418;2023-12-28T01:53:58;6.63;;;2.90;;
32295;SDS011;18781;51.550;5.418;2023-12-28T01:56:25;5.55;;;2.90;;
32295;SDS011;18781;51.550;5.418;2023-12-28T01:58:54;6.90;;;3.10;;
32295;SDS011;18781;51.550;5.418;2023-12-28T02:01:20;6.60;;;3.10;;
32295;SDS011;18781;51.550;5.418;2023-12-28T02:03:46;7.47;;;3.10;;
32295;SDS011;18781;51.550;5.418;2023-12-28T02:06:12;7.40;;;3.15;;
32295;SDS011;18781;51.550;5.418;2023-12-28T02:08:41;4.97;;;2.92;;
32295;SDS011;18781;51.550;5.418;2023-12-28T02:11:07;6.75;;;2.58;;
32295;SDS011;18781;51.550;5.418;2023-12-28T02:13:32;8.88;;;3.17;;
32295;SDS011;18781;51.550;5.418;2023-12-28T02:15:59;7.28;;;3.00;;
32295;SDS011;18781;51.550;5.418;2023-12-28T02:18:34;6.80;;;3.10;;
32295;SDS011;18781;51.550;5.418;2023-12-28T02:21:07;8.25;;;2.90;;
32295;SDS011;18781;51.550;5.418;2023-12-28T02:23:34;7.40;;;2.85;;
32295;SDS011;18781;51.550;5.418;2023-12-28T02:25:59;7.47;;;3.00;;
32295;SDS011;18781;51.550;5.418;2023-12-28T02:28:26;5.13;;;2.78;;
32295;SDS011;18781;51.550;5.418;2023-12-28T02:30:51;9.23;;;2.55;;
32295;SDS011;18781;51.550;5.418;2023-12-28T02:36:01;6.60;;;2.90;;
32295;SDS011;18781;51.550;5.418;2023-12-28T02:38:30;9.02;;;2.72;;
32295;SDS011;18781;51.550;5.418;2023-12-28T02:41:00;9.15;;;2.80;;
32295;SDS011;18781;51.550;5.418;2023-12-28T02:43:26;9.27;;;3.15;;
32295;SDS011;18781;51.550;5.418;2023-12-28T02:45:52;9.68;;;2.53;;
32295;SDS011;18781;51.550;5.418;2023-12-28T02:48:18;6.18;;;2.70;;
32295;SDS011;18781;51.550;5.418;2023-12-28T02:50:43;5.55;;;2.63;;
32295;SDS011;18781;51.550;5.418;2023-12-28T02:53:09;8.60;;;2.50;;
32295;SDS011;18781;51.550;5.418;2023-12-28T02:55:35;7.90;;;2.65;;
32295;SDS011;18781;51.550;5.418;2023-12-28T02:58:00;8.80;;;2.50;;
32295;SDS011;18781;51.550;5.418;2023-12-28T03:00:26;9.18;;;2.70;;
32295;SDS011;18781;51.550;5.418;2023-12-28T03:02:52;11.98;;;2.83;;
32295;SDS011;18781;51.550;5.418;2023-12-28T03:05:18;9.63;;;2.20;;
32295;SDS011;18781;51.550;5.418;2023-12-28T03:07:43;10.27;;;3.00;;
32295;SDS011;18781;51.550;5.418;2023-12-28T03:10:09;8.25;;;2.80;;
32295;SDS011;18781;51.550;5.418;2023-12-28T03:12:38;9.03;;;2.73;;
32295;SDS011;18781;51.550;5.418;2023-12-28T03:15:04;7.10;;;2.38;;
32295;SDS011;18781;51.550;5.418;2023-12-28T03:17:30;5.72;;;2.50;;
32295;SDS011;18781;51.550;5.418;2023-12-28T03:19:58;11.52;;;2.63;;
32295;SDS011;18781;51.550;5.418;2023-12-28T03:22:23;6.88;;;2.45;;
32295;SDS011;18781;51.550;5.418;2023-12-28T03:24:49;7.35;;;2.30;;
32295;SDS011;18781;51.550;5.418;2023-12-28T03:27:15;8.07;;;2.55;;
32295;SDS011;18781;51.550;5.418;2023-12-28T03:29:41;6.60;;;2.33;;
32295;SDS011;18781;51.550;5.418;2023-12-28T03:34:35;6.90;;;2.65;;
32295;SDS011;18781;51.550;5.418;2023-12-28T03:37:01;8.30;;;2.75;;
32295;SDS011;18781;51.550;5.418;2023-12-28T03:39:27;10.27;;;2.50;;
32295;SDS011;18781;51.550;5.418;2023-12-28T03:41:53;6.47;;;2.67;;
32295;SDS011;18781;51.550;5.418;2023-12-28T03:44:19;8.43;;;2.38;;
32295;SDS011;18781;51.550;5.418;2023-12-28T03:46:48;14.20;;;2.42;;
32295;SDS011;18781;51.550;5.418;2023-12-28T03:49:20;17.23;;;2.70;;
32295;SDS011;18781;51.550;5.418;2023-12-28T03:51:47;7.43;;;2.15;;
32295;SDS011;18781;51.550;5.418;2023-12-28T03:54:17;12.30;;;2.75;;
32295;SDS011;18781;51.550;5.418;2023-12-28T03:56:46;12.05;;;2.47;;
32295;SDS011;18781;51.550;5.418;2023-12-28T03:59:11;7.65;;;2.35;;
32295;SDS011;18781;51.550;5.418;2023-12-28T04:01:37;12.20;;;3.03;;
32295;SDS011;18781;51.550;5.418;2023-12-28T04:04:03;13.00;;;3.03;;
32295;SDS011;18781;51.550;5.418;2023-12-28T04:06:29;8.40;;;2.00;;
32295;SDS011;18781;51.550;5.418;2023-12-28T04:08:55;11.32;;;2.70;;
32295;SDS011;18781;51.550;5.418;2023-12-28T04:11:20;7.82;;;2.50;;
32295;SDS011;18781;51.550;5.418;2023-12-28T04:13:46;9.88;;;2.33;;
32295;SDS011;18781;51.550;5.418;2023-12-28T04:16:12;8.07;;;2.53;;
32295;SDS011;18781;51.550;5.418;2023-12-28T04:18:39;12.20;;;3.00;;
32295;SDS011;18781;51.550;5.418;2023-12-28T04:21:07;15.98;;;2.85;;
32295;SDS011;18781;51.550;5.418;2023-12-28T04:23:37;16.90;;;3.28;;
32295;SDS011;18781;51.550;5.418;2023-12-28T04:26:03;9.57;;;2.78;;
32295;SDS011;18781;51.550;5.418;2023-12-28T04:28:29;12.15;;;2.20;;
32295;SDS011;18781;51.550;5.418;2023-12-28T04:30:54;14.55;;;2.63;;
32295;SDS011;18781;51.550;5.418;2023-12-28T04:33:20;9.57;;;2.33;;
32295;SDS011;18781;51.550;5.418;2023-12-28T04:35:46;12.35;;;2.40;;
32295;SDS011;18781;51.550;5.418;2023-12-28T04:38:12;10.25;;;2.25;;
32295;SDS011;18781;51.550;5.418;2023-12-28T04:40:38;11.43;;;2.60;;
32295;SDS011;18781;51.550;5.418;2023-12-28T04:43:03;13.07;;;2.58;;
32295;SDS011;18781;51.550;5.418;2023-12-28T04:45:29;9.43;;;3.13;;
32295;SDS011;18781;51.550;5.418;2023-12-28T04:47:54;16.98;;;3.25;;
32295;SDS011;18781;51.550;5.418;2023-12-28T04:50:20;12.70;;;3.30;;
32295;SDS011;18781;51.550;5.418;2023-12-28T04:52:46;11.52;;;3.08;;
32295;SDS011;18781;51.550;5.418;2023-12-28T04:55:11;15.30;;;3.33;;
32295;SDS011;18781;51.550;5.418;2023-12-28T04:57:37;19.92;;;3.58;;
32295;SDS011;18781;51.550;5.418;2023-12-28T05:00:03;12.80;;;2.80;;
32295;SDS011;18781;51.550;5.418;2023-12-28T05:02:29;13.02;;;2.90;;
32295;SDS011;18781;51.550;5.418;2023-12-28T05:04:55;18.45;;;3.50;;
32295;SDS011;18781;51.550;5.418;2023-12-28T05:07:21;17.83;;;2.75;;
32295;SDS011;18781;51.550;5.418;2023-12-28T05:09:46;16.25;;;2.92;;
32295;SDS011;18781;51.550;5.418;2023-12-28T05:12:12;17.70;;;2.67;;
32295;SDS011;18781;51.550;5.418;2023-12-28T05:14:37;20.80;;;3.20;;
32295;SDS011;18781;51.550;5.418;2023-12-28T05:17:03;17.00;;;2.85;;
32295;SDS011;18781;51.550;5.418;2023-12-28T05:19:29;17.00;;;3.25;;
32295;SDS011;18781;51.550;5.418;2023-12-28T05:21:55;13.80;;;2.58;;
32295;SDS011;18781;51.550;5.418;2023-12-28T05:24:20;22.00;;;3.50;;
32295;SDS011;18781;51.550;5.418;2023-12-28T05:26:46;12.57;;;2.45;;
32295;SDS011;18781;51.550;5.418;2023-12-28T05:29:11;14.15;;;2.92;;
32295;SDS011;18781;51.550;5.418;2023-12-28T05:31:37;19.58;;;2.83;;
32295;SDS011;18781;51.550;5.418;2023-12-28T05:34:03;19.35;;;3.25;;
32295;SDS011;18781;51.550;5.418;2023-12-28T05:36:30;12.57;;;2.45;;
32295;SDS011;18781;51.550;5.418;2023-12-28T05:38:55;11.55;;;3.17;;
32295;SDS011;18781;51.550;5.418;2023-12-28T05:41:23;15.05;;;2.67;;
32295;SDS011;18781;51.550;5.418;2023-12-28T05:43:49;21.00;;;3.83;;
32295;SDS011;18781;51.550;5.418;2023-12-28T05:46:15;13.27;;;2.72;;
32295;SDS011;18781;51.550;5.418;2023-12-28T05:48:40;11.70;;;2.45;;
32295;SDS011;18781;51.550;5.418;2023-12-28T05:51:06;16.92;;;3.08;;
32295;SDS011;18781;51.550;5.418;2023-12-28T05:53:32;15.07;;;2.90;;
32295;SDS011;18781;51.550;5.418;2023-12-28T05:55:57;15.95;;;2.55;;
32295;SDS011;18781;51.550;5.418;2023-12-28T05:58:28;18.13;;;3.03;;
32295;SDS011;18781;51.550;5.418;2023-12-28T06:00:53;18.30;;;3.47;;
32295;SDS011;18781;51.550;5.418;2023-12-28T06:03:19;18.63;;;2.58;;
32295;SDS011;18781;51.550;5.418;2023-12-28T06:05:45;18.13;;;3.22;;
32295;SDS011;18781;51.550;5.418;2023-12-28T06:08:11;19.17;;;2.85;;
32295;SDS011;18781;51.550;5.418;2023-12-28T06:10:37;14.52;;;2.80;;
32295;SDS011;18781;51.550;5.418;2023-12-28T06:13:03;14.40;;;2.30;;
32295;SDS011;18781;51.550;5.418;2023-12-28T06:15:28;18.38;;;3.10;;
32295;SDS011;18781;51.550;5.418;2023-12-28T06:17:54;20.90;;;3.13;;
32295;SDS011;18781;51.550;5.418;2023-12-28T06:20:20;16.38;;;3.30;;
32295;SDS011;18781;51.550;5.418;2023-12-28T06:22:45;12.77;;;2.55;;
32295;SDS011;18781;51.550;5.418;2023-12-28T06:25:14;13.47;;;2.77;;
32295;SDS011;18781;51.550;5.418;2023-12-28T06:27:39;25.80;;;3.70;;
32295;SDS011;18781;51.550;5.418;2023-12-28T06:30:06;20.42;;;3.88;;
32295;SDS011;18781;51.550;5.418;2023-12-28T06:32:32;20.67;;;3.25;;
32295;SDS011;18781;51.550;5.418;2023-12-28T06:34:58;19.58;;;3.88;;
32295;SDS011;18781;51.550;5.418;2023-12-28T06:37:23;21.10;;;3.80;;
32295;SDS011;18781;51.550;5.418;2023-12-28T06:39:49;22.73;;;3.55;;
32295;SDS011;18781;51.550;5.418;2023-12-28T06:42:15;19.40;;;3.22;;
32295;SDS011;18781;51.550;5.418;2023-12-28T06:44:40;22.80;;;3.13;;
32295;SDS011;18781;51.550;5.418;2023-12-28T06:47:06;21.80;;;3.80;;
32295;SDS011;18781;51.550;5.418;2023-12-28T06:49:31;19.48;;;3.33;;
32295;SDS011;18781;51.550;5.418;2023-12-28T06:51:57;19.30;;;3.65;;
32295;SDS011;18781;51.550;5.418;2023-12-28T06:54:23;20.42;;;3.35;;
32295;SDS011;18781;51.550;5.418;2023-12-28T06:56:49;21.38;;;3.33;;
32295;SDS011;18781;51.550;5.418;2023-12-28T06:59:16;17.48;;;3.03;;
32295;SDS011;18781;51.550;5.418;2023-12-28T07:01:42;35.58;;;3.78;;
32295;SDS011;18781;51.550;5.418;2023-12-28T07:04:09;21.52;;;3.03;;
32295;SDS011;18781;51.550;5.418;2023-12-28T07:06:34;22.70;;;3.38;;
32295;SDS011;18781;51.550;5.418;2023-12-28T07:09:00;21.20;;;3.38;;
32295;SDS011;18781;51.550;5.418;2023-12-28T07:11:27;23.88;;;3.55;;
32295;SDS011;18781;51.550;5.418;2023-12-28T07:13:52;24.80;;;3.70;;
32295;SDS011;18781;51.550;5.418;2023-12-28T07:16:18;25.33;;;3.75;;
32295;SDS011;18781;51.550;5.418;2023-12-28T07:18:44;26.90;;;3.72;;
32295;SDS011;18781;51.550;5.418;2023-12-28T07:21:10;24.15;;;3.25;;
32295;SDS011;18781;51.550;5.418;2023-12-28T07:23:36;20.20;;;3.47;;
32295;SDS011;18781;51.550;5.418;2023-12-28T07:26:02;18.98;;;2.72;;
32295;SDS011;18781;51.550;5.418;2023-12-28T07:28:28;19.65;;;3.42;;
32295;SDS011;18781;51.550;5.418;2023-12-28T07:30:54;14.73;;;2.97;;
32295;SDS011;18781;51.550;5.418;2023-12-28T07:33:20;24.20;;;3.65;;
32295;SDS011;18781;51.550;5.418;2023-12-28T07:35:46;27.10;;;3.40;;
32295;SDS011;18781;51.550;5.418;2023-12-28T07:38:11;22.50;;;3.53;;
32295;SDS011;18781;51.550;5.418;2023-12-28T07:40:37;27.10;;;3.88;;
32295;SDS011;18781;51.550;5.418;2023-12-28T07:43:03;31.48;;;4.40;;
32295;SDS011;18781;51.550;5.418;2023-12-28T07:45:29;24.55;;;3.50;;
32295;SDS011;18781;51.550;5.418;2023-12-28T07:47:55;20.92;;;3.50;;
32295;SDS011;18781;51.550;5.418;2023-12-28T07:50:21;16.02;;;3.60;;
32295;SDS011;18781;51.550;5.418;2023-12-28T07:52:47;19.80;;;3.70;;
32295;SDS011;18781;51.550;5.418;2023-12-28T07:55:14;19.55;;;3.70;;
32295;SDS011;18781;51.550;5.418;2023-12-28T07:57:40;27.25;;;3.38;;
32295;SDS011;18781;51.550;5.418;2023-12-28T08:00:06;25.00;;;3.80;;
32295;SDS011;18781;51.550;5.418;2023-12-28T08:02:33;20.08;;;3.88;;
32295;SDS011;18781;51.550;5.418;2023-12-28T08:04:58;28.75;;;3.70;;
32295;SDS011;18781;51.550;5.418;2023-12-28T08:07:24;19.08;;;3.65;;
32295;SDS011;18781;51.550;5.418;2023-12-28T08:09:50;23.70;;;3.90;;
32295;SDS011;18781;51.550;5.418;2023-12-28T08:12:15;16.88;;;3.10;;
32295;SDS011;18781;51.550;5.418;2023-12-28T08:14:42;19.20;;;3.92;;
32295;SDS011;18781;51.550;5.418;2023-12-28T08:17:08;27.98;;;3.85;;
32295;SDS011;18781;51.550;5.418;2023-12-28T08:19:33;18.33;;;3.90;;
32295;SDS011;18781;51.550;5.418;2023-12-28T08:21:59;19.92;;;4.47;;
32295;SDS011;18781;51.550;5.418;2023-12-28T08:24:25;17.65;;;3.47;;
32295;SDS011;18781;51.550;5.418;2023-12-28T08:26:50;24.88;;;3.50;;
32295;SDS011;18781;51.550;5.418;2023-12-28T08:29:16;28.08;;;3.38;;
32295;SDS011;18781;51.550;5.418;2023-12-28T08:31:43;24.67;;;3.97;;
32295;SDS011;18781;51.550;5.418;2023-12-28T08:34:08;21.25;;;3.25;;
32295;SDS011;18781;51.550;5.418;2023-12-28T08:36:34;24.75;;;4.32;;
32295;SDS011;18781;51.550;5.418;2023-12-28T08:39:00;23.52;;;3.20;;
32295;SDS011;18781;51.550;5.418;2023-12-28T08:41:26;21.52;;;3.72;;
32295;SDS011;18781;51.550;5.418;2023-12-28T08:43:52;21.45;;;3.67;;
32295;SDS011;18781;51.550;5.418;2023-12-28T08:46:19;27.30;;;3.67;;
32295;SDS011;18781;51.550;5.418;2023-12-28T08:48:46;24.13;;;4.00;;
32295;SDS011;18781;51.550;5.418;2023-12-28T08:51:11;25.83;;;3.72;;
32295;SDS011;18781;51.550;5.418;2023-12-28T08:53:39;29.10;;;4.50;;
32295;SDS011;18781;51.550;5.418;2023-12-28T08:56:19;24.27;;;3.10;;
32295;SDS011;18781;51.550;5.418;2023-12-28T08:58:46;28.27;;;4.65;;
32295;SDS011;18781;51.550;5.418;2023-12-28T09:01:19;18.10;;;3.70;;
32295;SDS011;18781;51.550;5.418;2023-12-28T09:03:47;22.80;;;3.67;;
32295;SDS011;18781;51.550;5.418;2023-12-28T09:06:14;24.23;;;3.60;;
32295;SDS011;18781;51.550;5.418;2023-12-28T09:08:41;33.17;;;3.75;;
32295;SDS011;18781;51.550;5.418;2023-12-28T09:11:09;26.42;;;3.78;;
32295;SDS011;18781;51.550;5.418;2023-12-28T09:13:40;24.92;;;3.85;;
32295;SDS011;18781;51.550;5.418;2023-12-28T09:16:10;27.95;;;4.20;;
32295;SDS011;18781;51.550;5.418;2023-12-28T09:18:37;25.58;;;3.75;;
32295;SDS011;18781;51.550;5.418;2023-12-28T09:21:03;22.95;;;3.70;;
32295;SDS011;18781;51.550;5.418;2023-12-28T09:23:30;20.65;;;3.50;;
32295;SDS011;18781;51.550;5.418;2023-12-28T09:25:57;36.60;;;3.78;;
32295;SDS011;18781;51.550;5.418;2023-12-28T09:28:23;26.35;;;4.05;;
32295;SDS011;18781;51.550;5.418;2023-12-28T09:30:49;28.75;;;3.80;;
32295;SDS011;18781;51.550;5.418;2023-12-28T09:33:14;20.73;;;3.45;;
32295;SDS011;18781;51.550;5.418;2023-12-28T09:35:41;21.90;;;3.40;;
32295;SDS011;18781;51.550;5.418;2023-12-28T09:38:07;16.67;;;2.83;;
32295;SDS011;18781;51.550;5.418;2023-12-28T09:40:33;28.45;;;3.60;;
32295;SDS011;18781;51.550;5.418;2023-12-28T09:45:42;26.35;;;3.47;;
32295;SDS011;18781;51.550;5.418;2023-12-28T09:48:10;35.20;;;4.45;;
32295;SDS011;18781;51.550;5.418;2023-12-28T09:50:37;32.85;;;4.05;;
32295;SDS011;18781;51.550;5.418;2023-12-28T09:53:03;27.10;;;4.25;;
32295;SDS011;18781;51.550;5.418;2023-12-28T09:55:29;29.65;;;4.00;;
32295;SDS011;18781;51.550;5.418;2023-12-28T09:57:54;20.92;;;3.10;;
32295;SDS011;18781;51.550;5.418;2023-12-28T10:00:22;26.23;;;3.45;;
32295;SDS011;18781;51.550;5.418;2023-12-28T10:02:48;28.23;;;3.45;;
32295;SDS011;18781;51.550;5.418;2023-12-28T10:05:13;26.33;;;3.67;;
32295;SDS011;18781;51.550;5.418;2023-12-28T10:07:40;18.70;;;4.05;;
32295;SDS011;18781;51.550;5.418;2023-12-28T10:10:09;22.27;;;3.53;;
32295;SDS011;18781;51.550;5.418;2023-12-28T10:12:35;14.48;;;3.00;;
32295;SDS011;18781;51.550;5.418;2023-12-28T10:15:02;28.60;;;4.07;;
32295;SDS011;18781;51.550;5.418;2023-12-28T10:17:29;20.90;;;3.30;;
32295;SDS011;18781;51.550;5.418;2023-12-28T10:19:57;24.67;;;3.80;;
32295;SDS011;18781;51.550;5.418;2023-12-28T10:22:28;28.10;;;3.65;;
32295;SDS011;18781;51.550;5.418;2023-12-28T10:24:54;31.23;;;4.15;;
32295;SDS011;18781;51.550;5.418;2023-12-28T10:27:20;29.02;;;4.03;;
32295;SDS011;18781;51.550;5.418;2023-12-28T10:29:46;17.02;;;3.30;;
32295;SDS011;18781;51.550;5.418;2023-12-28T10:32:11;26.38;;;3.92;;
32295;SDS011;18781;51.550;5.418;2023-12-28T10:34:37;29.40;;;4.43;;
32295;SDS011;18781;51.550;5.418;2023-12-28T10:37:02;31.55;;;3.90;;
32295;SDS011;18781;51.550;5.418;2023-12-28T10:39:30;24.30;;;3.25;;
32295;SDS011;18781;51.550;5.418;2023-12-28T10:41:59;23.63;;;3.97;;
32295;SDS011;18781;51.550;5.418;2023-12-28T10:44:28;29.63;;;4.25;;
32295;SDS011;18781;51.550;5.418;2023-12-28T10:47:00;24.13;;;3.30;;
32295;SDS011;18781;51.550;5.418;2023-12-28T10:49:30;26.15;;;4.32;;
32295;SDS011;18781;51.550;5.418;2023-12-28T10:51:58;30.33;;;4.72;;
32295;SDS011;18781;51.550;5.418;2023-12-28T10:54:33;23.77;;;5.65;;
32295;SDS011;18781;51.550;5.418;2023-12-28T10:57:12;29.75;;;5.03;;
32295;SDS011;18781;51.550;5.418;2023-12-28T11:02:38;22.65;;;3.90;;
32295;SDS011;18781;51.550;5.418;2023-12-28T11:05:07;30.45;;;4.03;;
32295;SDS011;18781;51.550;5.418;2023-12-28T11:07:33;30.08;;;4.35;;
32295;SDS011;18781;51.550;5.418;2023-12-28T11:10:00;28.38;;;4.10;;
32295;SDS011;18781;51.550;5.418;2023-12-28T11:12:29;28.02;;;3.78;;
32295;SDS011;18781;51.550;5.418;2023-12-28T11:14:56;32.95;;;3.67;;
32295;SDS011;18781;51.550;5.418;2023-12-28T11:17:22;24.83;;;4.15;;
32295;SDS011;18781;51.550;5.418;2023-12-28T11:19:49;34.58;;;4.18;;
32295;SDS011;18781;51.550;5.418;2023-12-28T11:22:18;25.33;;;3.63;;
32295;SDS011;18781;51.550;5.418;2023-12-28T11:24:45;18.17;;;2.92;;
32295;SDS011;18781;51.550;5.418;2023-12-28T11:27:11;23.08;;;3.15;;
32295;SDS011;18781;51.550;5.418;2023-12-28T11:29:37;18.58;;;3.90;;
32295;SDS011;18781;51.550;5.418;2023-12-28T11:32:04;28.40;;;4.38;;
32295;SDS011;18781;51.550;5.418;2023-12-28T11:34:30;29.05;;;3.80;;
32295;SDS011;18781;51.550;5.418;2023-12-28T11:37:02;20.60;;;4.15;;
32295;SDS011;18781;51.550;5.418;2023-12-28T11:39:35;27.33;;;4.57;;
32295;SDS011;18781;51.550;5.418;2023-12-28T11:42:05;32.75;;;3.95;;
32295;SDS011;18781;51.550;5.418;2023-12-28T11:44:43;26.90;;;4.10;;
32295;SDS011;18781;51.550;5.418;2023-12-28T11:47:16;18.55;;;3.90;;
32295;SDS011;18781;51.550;5.418;2023-12-28T11:49:45;25.90;;;3.85;;
32295;SDS011;18781;51.550;5.418;2023-12-28T11:52:21;34.08;;;3.97;;
32295;SDS011;18781;51.550;5.418;2023-12-28T11:54:51;30.05;;;3.90;;
32295;SDS011;18781;51.550;5.418;2023-12-28T11:57:17;32.63;;;4.15;;
32295;SDS011;18781;51.550;5.418;2023-12-28T11:59:43;31.08;;;4.13;;
32295;SDS011;18781;51.550;5.418;2023-12-28T12:02:09;35.30;;;4.25;;
32295;SDS011;18781;51.550;5.418;2023-12-28T12:04:36;30.90;;;4.22;;
32295;SDS011;18781;51.550;5.418;2023-12-28T12:07:02;29.67;;;3.78;;
32295;SDS011;18781;51.550;5.418;2023-12-28T12:09:30;29.10;;;4.32;;
32295;SDS011;18781;51.550;5.418;2023-12-28T12:12:02;23.73;;;4.00;;
32295;SDS011;18781;51.550;5.418;2023-12-28T12:16:55;26.58;;;4.18;;
32295;SDS011;18781;51.550;5.418;2023-12-28T12:19:24;21.30;;;3.72;;
32295;SDS011;18781;51.550;5.418;2023-12-28T12:21:54;24.05;;;3.58;;
32295;SDS011;18781;51.550;5.418;2023-12-28T12:24:20;28.95;;;4.15;;
32295;SDS011;18781;51.550;5.418;2023-12-28T12:26:47;27.73;;;4.03;;
32295;SDS011;18781;51.550;5.418;2023-12-28T12:29:14;33.38;;;4.65;;
32295;SDS011;18781;51.550;5.418;2023-12-28T12:31:39;27.00;;;3.58;;
32295;SDS011;18781;51.550;5.418;2023-12-28T12:34:07;31.17;;;4.60;;
32295;SDS011;18781;51.550;5.418;2023-12-28T12:39:02;24.70;;;4.15;;
32295;SDS011;18781;51.550;5.418;2023-12-28T12:41:34;28.52;;;4.20;;
32295;SDS011;18781;51.550;5.418;2023-12-28T12:44:00;30.30;;;3.88;;
32295;SDS011;18781;51.550;5.418;2023-12-28T12:46:26;32.70;;;4.70;;
32295;SDS011;18781;51.550;5.418;2023-12-28T12:48:55;22.30;;;4.20;;
32295;SDS011;18781;51.550;5.418;2023-12-28T12:51:22;20.67;;;4.50;;
32295;SDS011;18781;51.550;5.418;2023-12-28T12:53:47;31.00;;;4.60;;
32295;SDS011;18781;51.550;5.418;2023-12-28T12:56:13;29.58;;;5.00;;
32295;SDS011;18781;51.550;5.418;2023-12-28T12:58:39;30.40;;;4.40;;
32295;SDS011;18781;51.550;5.418;2023-12-28T13:01:04;29.95;;;4.63;;
32295;SDS011;18781;51.550;5.418;2023-12-28T13:03:30;34.60;;;4.60;;
32295;SDS011;18781;51.550;5.418;2023-12-28T13:05:56;20.50;;;3.20;;
32295;SDS011;18781;51.550;5.418;2023-12-28T13:08:22;30.75;;;4.47;;
32295;SDS011;18781;51.550;5.418;2023-12-28T13:10:48;26.15;;;3.97;;
32295;SDS011;18781;51.550;5.418;2023-12-28T13:13:14;29.77;;;4.18;;
32295;SDS011;18781;51.550;5.418;2023-12-28T13:15:40;24.70;;;3.95;;
32295;SDS011;18781;51.550;5.418;2023-12-28T13:18:06;36.78;;;5.45;;
32295;SDS011;18781;51.550;5.418;2023-12-28T13:20:32;27.42;;;4.47;;
32295;SDS011;18781;51.550;5.418;2023-12-28T13:22:58;22.77;;;4.28;;
32295;SDS011;18781;51.550;5.418;2023-12-28T13:25:24;36.60;;;4.97;;
32295;SDS011;18781;51.550;5.418;2023-12-28T13:27:50;29.58;;;6.13;;
32295;SDS011;18781;51.550;5.418;2023-12-28T13:30:15;34.05;;;6.15;;
32295;SDS011;18781;51.550;5.418;2023-12-28T13:32:41;30.25;;;4.88;;
32295;SDS011;18781;51.550;5.418;2023-12-28T13:35:07;26.20;;;4.00;;
32295;SDS011;18781;51.550;5.418;2023-12-28T13:37:33;32.75;;;4.38;;
32295;SDS011;18781;51.550;5.418;2023-12-28T13:39:58;22.73;;;4.05;;
32295;SDS011;18781;51.550;5.418;2023-12-28T13:42:24;22.55;;;4.13;;
32295;SDS011;18781;51.550;5.418;2023-12-28T13:44:49;27.05;;;4.32;;
32295;SDS011;18781;51.550;5.418;2023-12-28T13:47:15;33.03;;;4.38;;
32295;SDS011;18781;51.550;5.418;2023-12-28T13:49:41;29.45;;;4.90;;
32295;SDS011;18781;51.550;5.418;2023-12-28T13:52:06;32.95;;;4.13;;
32295;SDS011;18781;51.550;5.418;2023-12-28T13:54:32;23.33;;;3.92;;
32295;SDS011;18781;51.550;5.418;2023-12-28T13:56:58;27.33;;;4.20;;
32295;SDS011;18781;51.550;5.418;2023-12-28T13:59:24;30.77;;;4.25;;
32295;SDS011;18781;51.550;5.418;2023-12-28T14:01:50;28.15;;;5.03;;
32295;SDS011;18781;51.550;5.418;2023-12-28T14:04:16;29.58;;;4.57;;
32295;SDS011;18781;51.550;5.418;2023-12-28T14:06:41;22.60;;;4.35;;
32295;SDS011;18781;51.550;5.418;2023-12-28T14:09:07;33.53;;;4.13;;
32295;SDS011;18781;51.550;5.418;2023-12-28T14:11:33;26.73;;;3.90;;
32295;SDS011;18781;51.550;5.418;2023-12-28T14:13:59;22.92;;;3.63;;
32295;SDS011;18781;51.550;5.418;2023-12-28T14:16:24;30.60;;;3.70;;
32295;SDS011;18781;51.550;5.418;2023-12-28T14:18:50;24.10;;;4.15;;
32295;SDS011;18781;51.550;5.418;2023-12-28T14:21:17;28.10;;;4.22;;
32295;SDS011;18781;51.550;5.418;2023-12-28T14:23:43;34.90;;;4.35;;
32295;SDS011;18781;51.550;5.418;2023-12-28T14:26:13;22.05;;;4.30;;
32295;SDS011;18781;51.550;5.418;2023-12-28T14:28:42;29.92;;;4.22;;
32295;SDS011;18781;51.550;5.418;2023-12-28T14:31:11;22.15;;;3.33;;
32295;SDS011;18781;51.550;5.418;2023-12-28T14:33:38;24.92;;;4.35;;
32295;SDS011;18781;51.550;5.418;2023-12-28T14:36:11;25.95;;;4.60;;
32295;SDS011;18781;51.550;5.418;2023-12-28T14:38:57;24.40;;;3.92;;
32295;SDS011;18781;51.550;5.418;2023-12-28T14:41:26;21.02;;;3.38;;
32295;SDS011;18781;51.550;5.418;2023-12-28T14:43:52;22.58;;;4.15;;
32295;SDS011;18781;51.550;5.418;2023-12-28T14:46:20;21.77;;;4.05;;
32295;SDS011;18781;51.550;5.418;2023-12-28T14:48:46;24.20;;;3.45;;
32295;SDS011;18781;51.550;5.418;2023-12-28T14:51:12;29.70;;;4.15;;